createdAt,value
2024-02-24T00:00:50.273Z,27.44
2024-02-24T00:01:50.254Z,27.49
2024-02-24T00:02:50.229Z,27.41
2024-02-24T00:03:50.218Z,27.41
2024-02-24T00:04:50.268Z,27.46
2024-02-24T00:05:50.603Z,27.49
2024-02-24T00:06:50.228Z,27.43
2024-02-24T00:07:50.226Z,27.50
2024-02-24T00:08:50.236Z,27.37
2024-02-24T00:09:50.234Z,27.46
2024-02-24T00:10:50.251Z,27.46
2024-02-24T00:11:50.297Z,27.47
2024-02-24T00:12:50.237Z,27.44
2024-02-24T00:13:50.242Z,27.44
2024-02-24T00:14:50.300Z,27.41
2024-02-24T00:15:50.239Z,27.47
2024-02-24T00:16:50.233Z,27.44
2024-02-24T00:17:50.453Z,27.40
2024-02-24T00:18:50.260Z,27.41
2024-02-24T00:19:50.243Z,27.37
2024-02-24T00:20:50.261Z,27.46
2024-02-24T00:21:50.266Z,27.46
2024-02-24T00:22:50.239Z,27.39
2024-02-24T00:23:50.282Z,27.44
2024-02-24T00:24:50.243Z,27.46
2024-02-24T00:25:50.251Z,27.40
2024-02-24T00:26:50.252Z,27.43
2024-02-24T00:27:50.291Z,27.40
2024-02-24T00:28:50.253Z,27.43
2024-02-24T00:29:50.292Z,27.39
2024-02-24T00:30:50.256Z,27.41
2024-02-24T00:31:50.265Z,27.44
2024-02-24T00:32:50.356Z,27.41
2024-02-24T00:33:50.289Z,27.44
2024-02-24T00:34:50.259Z,27.49
2024-02-24T00:35:50.284Z,27.49
2024-02-24T00:36:50.262Z,27.40
2024-02-24T00:37:50.283Z,27.39
2024-02-24T00:38:50.281Z,27.43
2024-02-24T00:39:50.278Z,27.44
2024-02-24T00:40:50.274Z,27.39
2024-02-24T00:41:50.310Z,27.41
2024-02-24T00:42:50.269Z,27.51
2024-02-24T00:43:50.289Z,27.47
2024-02-24T00:44:50.273Z,27.49
2024-02-24T00:45:50.285Z,27.44
2024-02-24T00:46:50.299Z,27.46
2024-02-24T00:47:50.330Z,27.47
2024-02-24T00:48:50.348Z,27.36
2024-02-24T00:49:50.332Z,27.41
2024-02-24T00:50:50.296Z,27.43
2024-02-24T00:51:50.298Z,27.43
2024-02-24T00:52:50.289Z,27.39
2024-02-24T00:53:50.314Z,27.39
2024-02-24T00:54:50.299Z,27.40
2024-02-24T00:55:50.301Z,27.41
2024-02-24T00:56:50.293Z,27.40
2024-02-24T00:57:50.307Z,27.43
2024-02-24T00:58:50.297Z,27.49
2024-02-24T00:59:50.350Z,27.49
2024-02-24T01:00:50.362Z,27.47
2024-02-24T01:01:50.318Z,27.43
2024-02-24T01:02:50.397Z,27.43
2024-02-24T01:03:50.384Z,27.40
2024-02-24T01:04:50.311Z,27.49
2024-02-24T01:05:50.461Z,27.49
2024-02-24T01:06:50.328Z,27.49
2024-02-24T01:07:50.319Z,27.49
2024-02-24T01:08:50.334Z,27.41
2024-02-24T01:09:50.323Z,27.47
2024-02-24T01:10:50.327Z,27.39
2024-02-24T01:11:50.403Z,27.41
2024-02-24T01:12:50.324Z,27.40
2024-02-24T01:13:50.365Z,27.39
2024-02-24T01:14:50.414Z,27.40
2024-02-24T01:15:50.334Z,27.40
2024-02-24T01:16:50.320Z,27.41
2024-02-24T01:17:50.470Z,27.49
2024-02-24T01:18:50.460Z,27.44
2024-02-24T01:19:50.344Z,27.46
2024-02-24T01:20:50.437Z,27.41
2024-02-24T01:21:50.362Z,27.39
2024-02-24T01:22:50.350Z,27.46
2024-02-24T01:23:50.414Z,27.39
2024-02-24T01:24:50.337Z,27.41
2024-02-24T01:25:50.345Z,27.50
2024-02-24T01:26:50.342Z,27.44
2024-02-24T01:27:50.354Z,27.47
2024-02-24T01:28:50.344Z,27.44
2024-02-24T01:29:50.422Z,27.47
2024-02-24T01:30:50.354Z,27.41
2024-02-24T01:31:50.355Z,27.43
2024-02-24T01:32:50.477Z,27.47
2024-02-24T01:33:50.426Z,27.43
2024-02-24T01:34:50.348Z,27.39
2024-02-24T01:35:50.415Z,27.41
2024-02-24T01:36:50.358Z,27.44
2024-02-24T01:37:50.390Z,27.41
2024-02-24T01:38:50.389Z,27.41
2024-02-24T01:39:50.367Z,27.43
2024-02-24T01:40:50.357Z,27.40
2024-02-24T01:41:50.424Z,27.43
2024-02-24T01:42:50.363Z,27.40
2024-02-24T01:43:50.382Z,27.41
2024-02-24T01:44:50.419Z,27.40
2024-02-24T01:45:50.375Z,27.43
2024-02-24T01:46:50.369Z,27.44
2024-02-24T01:47:50.558Z,27.40
2024-02-24T01:48:50.449Z,27.36
2024-02-24T01:49:50.385Z,27.49
2024-02-24T01:50:50.438Z,27.44
2024-02-24T01:51:50.389Z,27.43
2024-02-24T01:52:50.443Z,27.41
2024-02-24T01:53:50.459Z,27.41
2024-02-24T01:54:50.379Z,27.46
2024-02-24T01:55:50.393Z,27.44
2024-02-24T01:56:50.391Z,27.39
2024-02-24T01:57:50.402Z,27.46
2024-02-24T01:58:50.395Z,27.49
2024-02-24T01:59:50.450Z,27.41
2024-02-24T02:00:50.452Z,27.41
2024-02-24T02:01:50.408Z,27.40
2024-02-24T02:02:50.470Z,27.37
2024-02-24T02:03:50.405Z,27.43
2024-02-24T02:04:50.533Z,27.41
2024-02-24T02:05:50.512Z,27.46
2024-02-24T02:06:50.494Z,27.44
2024-02-24T02:07:50.412Z,27.40
2024-02-24T02:08:50.435Z,27.39
2024-02-24T02:09:50.440Z,27.41
2024-02-24T02:10:50.403Z,27.41
2024-02-24T02:11:56.708Z,27.43
2024-02-24T02:12:50.482Z,27.37
2024-02-24T02:13:50.418Z,27.41
2024-02-24T02:14:50.427Z,27.37
2024-02-24T02:15:50.428Z,27.44
2024-02-24T02:16:50.416Z,27.44
2024-02-24T02:17:50.549Z,27.40
2024-02-24T02:18:50.530Z,27.49
2024-02-24T02:19:50.431Z,27.47
2024-02-24T02:20:50.503Z,27.40
2024-02-24T02:21:50.443Z,27.41
2024-02-24T02:22:50.424Z,27.43
2024-02-24T02:23:50.499Z,27.46
2024-02-24T02:24:50.433Z,27.39
2024-02-24T02:25:50.467Z,27.43
2024-02-24T02:26:50.499Z,27.41
2024-02-24T02:27:50.444Z,27.41
2024-02-24T02:28:50.436Z,27.44
2024-02-24T02:29:50.489Z,27.46
2024-02-24T02:30:50.439Z,27.37
2024-02-24T02:31:50.452Z,27.41
2024-02-24T02:32:50.559Z,27.41
2024-02-24T02:33:50.585Z,27.46
2024-02-24T02:34:50.445Z,27.47
2024-02-24T02:35:50.474Z,27.46
2024-02-24T02:36:50.448Z,27.41
2024-02-24T02:37:50.459Z,27.46
2024-02-24T02:38:50.453Z,27.39
2024-02-24T02:39:50.468Z,27.50
2024-02-24T02:40:50.452Z,27.44
2024-02-24T02:41:50.492Z,27.46
2024-02-24T02:42:50.455Z,27.47
2024-02-24T02:43:50.475Z,27.40
2024-02-24T02:44:50.464Z,27.41
2024-02-24T02:45:50.479Z,27.39
2024-02-24T02:46:50.465Z,27.41
2024-02-24T02:47:50.645Z,27.44
2024-02-24T02:48:50.657Z,27.41
2024-02-24T02:49:50.519Z,27.41
2024-02-24T02:50:50.494Z,27.50
2024-02-24T02:51:50.491Z,27.44
2024-02-24T02:52:50.500Z,27.44
2024-02-24T02:53:50.520Z,27.50
2024-02-24T02:54:50.477Z,27.39
2024-02-24T02:55:50.496Z,27.43
2024-02-24T02:56:50.498Z,27.41
2024-02-24T02:57:50.522Z,27.41
2024-02-24T02:58:50.503Z,27.43
2024-02-24T02:59:50.555Z,27.44
2024-02-24T03:00:50.506Z,27.43
2024-02-24T03:01:50.499Z,27.49
2024-02-24T03:02:50.534Z,27.50
2024-02-24T03:03:50.518Z,27.41
2024-02-24T03:04:50.568Z,27.51
2024-02-24T03:05:50.604Z,27.34
2024-02-24T03:06:50.556Z,27.47
2024-02-24T03:07:50.511Z,27.40
2024-02-24T03:08:51.134Z,27.41
2024-02-24T03:09:50.513Z,27.34
2024-02-24T03:10:50.530Z,27.49
2024-02-24T03:11:50.620Z,27.49
2024-02-24T03:12:50.526Z,27.41
2024-02-24T03:13:50.543Z,27.39
2024-02-24T03:14:50.541Z,27.41
2024-02-24T03:15:50.522Z,27.37
2024-02-24T03:16:50.512Z,27.40
2024-02-24T03:17:50.625Z,27.41
2024-02-24T03:18:50.623Z,27.49
2024-02-24T03:19:50.525Z,27.41
2024-02-24T03:20:50.618Z,27.39
2024-02-24T03:21:50.540Z,27.40
2024-02-24T03:22:50.521Z,27.41
2024-02-24T03:23:50.555Z,27.40
2024-02-24T03:24:50.535Z,27.39
2024-02-24T03:25:50.539Z,27.40
2024-02-24T03:26:50.546Z,27.41
2024-02-24T03:27:50.539Z,27.41
2024-02-24T03:28:50.528Z,27.40
2024-02-24T03:29:50.630Z,27.39
2024-02-24T03:30:50.529Z,27.41
2024-02-24T03:31:50.552Z,27.40
2024-02-24T03:32:50.626Z,27.44
2024-02-24T03:33:50.682Z,27.43
2024-02-24T03:34:50.535Z,27.47
2024-02-24T03:35:50.621Z,27.49
2024-02-24T03:36:50.539Z,27.41
2024-02-24T03:37:50.553Z,27.40
2024-02-24T03:38:50.571Z,27.32
2024-02-24T03:39:50.561Z,27.40
2024-02-24T03:40:50.546Z,27.39
2024-02-24T03:41:50.641Z,27.40
2024-02-24T03:42:50.550Z,27.32
2024-02-24T03:43:50.561Z,27.43
2024-02-24T03:44:50.600Z,27.41
2024-02-24T03:45:50.605Z,27.34
2024-02-24T03:46:50.551Z,27.40
2024-02-24T03:47:50.732Z,27.37
2024-02-24T03:48:50.611Z,27.31
2024-02-24T03:49:50.569Z,27.39
2024-02-24T03:50:50.588Z,27.31
2024-02-24T03:51:50.577Z,27.31
2024-02-24T03:52:50.569Z,27.43
2024-02-24T03:53:50.623Z,27.37
2024-02-24T03:54:50.565Z,27.37
2024-02-24T03:55:50.584Z,27.36
2024-02-24T03:56:50.595Z,27.32
2024-02-24T03:57:50.582Z,27.31
2024-02-24T03:58:50.586Z,27.34
2024-02-24T03:59:50.614Z,27.32
2024-02-24T04:00:50.626Z,27.40
2024-02-24T04:01:50.604Z,27.36
2024-02-24T04:02:50.620Z,27.32
2024-02-24T04:03:50.597Z,27.32
2024-02-24T04:04:50.594Z,27.34
2024-02-24T04:05:50.652Z,27.27
2024-02-24T04:06:50.683Z,27.36
2024-02-24T04:07:50.584Z,27.22
2024-02-24T04:08:50.778Z,27.31
2024-02-24T04:09:50.623Z,27.22
2024-02-24T04:10:50.644Z,27.22
2024-02-24T04:11:50.758Z,27.18
2024-02-24T04:12:50.613Z,27.25
2024-02-24T04:13:50.604Z,27.18
2024-02-24T04:14:50.669Z,27.24
2024-02-24T04:15:50.595Z,27.27
2024-02-24T04:16:50.655Z,27.25
2024-02-24T04:17:50.701Z,27.22
2024-02-24T04:18:50.715Z,27.21
2024-02-24T04:19:50.604Z,27.25
2024-02-24T04:20:50.674Z,27.25
2024-02-24T04:21:50.605Z,27.25
2024-02-24T04:22:50.633Z,27.21
2024-02-24T04:23:50.689Z,27.27
2024-02-24T04:24:50.619Z,27.21
2024-02-24T04:25:50.610Z,27.19
2024-02-24T04:26:50.722Z,27.18
2024-02-24T04:27:50.614Z,27.22
2024-02-24T04:28:50.634Z,27.24
2024-02-24T04:29:50.825Z,27.21
2024-02-24T04:30:50.638Z,27.18
2024-02-24T04:31:50.617Z,27.17
2024-02-24T04:32:50.705Z,27.22
2024-02-24T04:33:50.720Z,27.18
2024-02-24T04:34:50.634Z,27.27
2024-02-24T04:35:50.691Z,27.22
2024-02-24T04:36:50.641Z,27.21
2024-02-24T04:37:50.624Z,27.19
2024-02-24T04:38:50.730Z,27.24
2024-02-24T04:39:50.629Z,27.24
2024-02-24T04:40:50.647Z,27.25
2024-02-24T04:41:50.652Z,27.25
2024-02-24T04:42:50.645Z,27.21
2024-02-24T04:43:50.642Z,27.21
2024-02-24T04:44:50.779Z,27.25
2024-02-24T04:45:50.637Z,27.24
2024-02-24T04:46:50.650Z,27.28
2024-02-24T04:47:50.860Z,27.21
2024-02-24T04:48:50.715Z,27.24
2024-02-24T04:49:50.670Z,27.29
2024-02-24T04:50:50.716Z,27.27
2024-02-24T04:51:50.645Z,27.24
2024-02-24T04:52:50.669Z,27.19
2024-02-24T04:53:50.686Z,27.24
2024-02-24T04:54:50.668Z,27.21
2024-02-24T04:55:50.654Z,27.18
2024-02-24T04:56:50.683Z,27.25
2024-02-24T04:57:50.675Z,27.25
2024-02-24T04:58:50.684Z,27.25
2024-02-24T04:59:50.690Z,27.21
2024-02-24T05:00:50.699Z,27.24
2024-02-24T05:01:50.667Z,27.24
2024-02-24T05:02:50.850Z,27.27
2024-02-24T05:03:50.698Z,27.24
2024-02-24T05:04:50.717Z,27.22
2024-02-24T05:05:50.754Z,27.37
2024-02-24T05:06:50.768Z,27.28
2024-02-24T05:07:50.673Z,27.28
2024-02-24T05:08:50.774Z,27.21
2024-02-24T05:09:50.667Z,27.17
2024-02-24T05:10:50.696Z,27.24
2024-02-24T05:11:50.770Z,27.32
2024-02-24T05:12:50.699Z,27.24
2024-02-24T05:13:50.674Z,27.24
2024-02-24T05:14:50.780Z,27.22
2024-02-24T05:15:50.677Z,27.21
2024-02-24T05:16:50.692Z,27.27
2024-02-24T05:17:50.846Z,27.28
2024-02-24T05:18:50.866Z,27.22
2024-02-24T05:19:50.688Z,27.24
2024-02-24T05:20:50.770Z,27.24
2024-02-24T05:21:50.707Z,27.27
2024-02-24T05:22:50.696Z,27.19
2024-02-24T05:23:50.726Z,27.24
2024-02-24T05:24:50.701Z,27.28
2024-02-24T05:25:50.696Z,27.19
2024-02-24T05:26:50.738Z,27.22
2024-02-24T05:27:50.695Z,27.29
2024-02-24T05:28:50.706Z,27.28
2024-02-24T05:29:50.737Z,27.28
2024-02-24T05:30:50.711Z,27.28
2024-02-24T05:31:50.729Z,27.31
2024-02-24T05:32:50.854Z,27.32
2024-02-24T05:33:50.788Z,27.27
2024-02-24T05:34:50.845Z,27.34
2024-02-24T05:35:50.824Z,27.27
2024-02-24T05:36:50.737Z,27.31
2024-02-24T05:37:50.734Z,27.34
2024-02-24T05:38:50.781Z,27.25
2024-02-24T05:39:51.701Z,27.32
2024-02-24T05:40:50.729Z,27.19
2024-02-24T05:41:50.847Z,27.24
2024-02-24T05:42:50.727Z,27.18
2024-02-24T05:43:50.726Z,27.27
2024-02-24T05:44:50.848Z,27.32
2024-02-24T05:45:50.726Z,27.19
2024-02-24T05:46:50.735Z,27.28
2024-02-24T05:47:50.783Z,27.24
2024-02-24T05:48:50.816Z,27.18
2024-02-24T05:49:50.741Z,27.36
2024-02-24T05:50:50.844Z,27.22
2024-02-24T05:51:50.748Z,27.27
2024-02-24T05:52:50.754Z,27.19
2024-02-24T05:53:50.935Z,27.24
2024-02-24T05:54:50.745Z,27.25
2024-02-24T05:55:50.749Z,27.21
2024-02-24T05:56:50.854Z,27.29
2024-02-24T05:57:50.743Z,27.19
2024-02-24T05:58:50.759Z,27.31
2024-02-24T05:59:50.831Z,27.24
2024-02-24T06:00:50.816Z,27.36
2024-02-24T06:01:50.745Z,27.31
2024-02-24T06:02:50.880Z,27.32
2024-02-24T06:03:50.784Z,27.36
2024-02-24T06:04:50.764Z,27.28
2024-02-24T06:05:50.823Z,27.32
2024-02-24T06:06:50.792Z,27.29
2024-02-24T06:07:52.621Z,27.28
2024-02-24T06:08:50.847Z,27.27
2024-02-24T06:09:50.782Z,27.22
2024-02-24T06:10:50.848Z,27.29
2024-02-24T06:11:50.804Z,27.31
2024-02-24T06:12:50.774Z,27.36
2024-02-24T06:13:50.763Z,27.31
2024-02-24T06:14:50.829Z,27.36
2024-02-24T06:15:50.778Z,27.34
2024-02-24T06:16:50.794Z,27.37
2024-02-24T06:17:50.830Z,27.34
2024-02-24T06:18:50.868Z,27.37
2024-02-24T06:19:50.774Z,27.39
2024-02-24T06:20:50.805Z,27.37
2024-02-24T06:21:50.799Z,27.40
2024-02-24T06:22:50.787Z,27.29
2024-02-24T06:23:50.867Z,27.36
2024-02-24T06:24:50.811Z,27.36
2024-02-24T06:25:50.808Z,27.37
2024-02-24T06:26:50.828Z,27.34
2024-02-24T06:27:50.785Z,27.28
2024-02-24T06:28:50.797Z,27.36
2024-02-24T06:29:50.807Z,27.28
2024-02-24T06:30:50.816Z,27.39
2024-02-24T06:31:50.796Z,27.40
2024-02-24T06:32:50.878Z,27.31
2024-02-24T06:33:50.848Z,27.32
2024-02-24T06:34:50.868Z,27.39
2024-02-24T06:35:50.880Z,27.32
2024-02-24T06:36:50.811Z,27.37
2024-02-24T06:37:50.805Z,27.37
2024-02-24T06:38:50.880Z,27.36
2024-02-24T06:39:50.805Z,27.34
2024-02-24T06:40:50.821Z,27.39
2024-02-24T06:41:50.905Z,27.31
2024-02-24T06:42:50.818Z,27.36
2024-02-24T06:43:50.813Z,27.32
2024-02-24T06:44:50.949Z,27.32
2024-02-24T06:45:50.811Z,27.31
2024-02-24T06:46:53.607Z,27.37
2024-02-24T06:47:50.863Z,27.31
2024-02-24T06:48:50.963Z,27.39
2024-02-24T06:49:50.844Z,27.34
2024-02-24T06:50:50.910Z,27.36
2024-02-24T06:51:50.818Z,27.32
2024-02-24T06:52:50.833Z,27.31
2024-02-24T06:53:50.925Z,27.29
2024-02-24T06:54:50.846Z,27.28
2024-02-24T06:55:50.834Z,27.28
2024-02-24T06:56:50.959Z,27.32
2024-02-24T06:57:50.852Z,27.31
2024-02-24T06:58:50.850Z,27.31
2024-02-24T06:59:50.997Z,27.36
2024-02-24T07:00:50.881Z,27.34
2024-02-24T07:01:50.836Z,27.36
2024-02-24T07:02:51.049Z,27.36
2024-02-24T07:03:50.945Z,27.32
2024-02-24T07:04:50.884Z,27.28
2024-02-24T07:05:50.870Z,27.34
2024-02-24T07:06:50.895Z,27.37
2024-02-24T07:07:50.902Z,27.34
2024-02-24T07:08:50.905Z,27.36
2024-02-24T07:09:50.847Z,27.32
2024-02-24T07:10:50.877Z,27.29
2024-02-24T07:11:50.976Z,27.34
2024-02-24T07:12:50.868Z,27.37
2024-02-24T07:13:50.878Z,27.37
2024-02-24T07:14:50.939Z,27.36
2024-02-24T07:15:50.861Z,27.36
2024-02-24T07:16:50.867Z,27.28
2024-02-24T07:17:50.927Z,27.32
2024-02-24T07:18:50.909Z,27.32
2024-02-24T07:19:50.860Z,27.36
2024-02-24T07:20:51.032Z,27.36
2024-02-24T07:21:50.863Z,27.44
2024-02-24T07:22:50.887Z,27.36
2024-02-24T07:23:50.943Z,27.41
2024-02-24T07:24:50.878Z,27.36
2024-02-24T07:25:50.869Z,27.31
2024-02-24T07:26:51.244Z,27.36
2024-02-24T07:27:50.872Z,27.36
2024-02-24T07:28:50.885Z,27.41
2024-02-24T07:29:51.127Z,27.37
2024-02-24T07:30:50.887Z,27.39
2024-02-24T07:31:50.884Z,27.41
2024-02-24T07:32:50.988Z,27.39
2024-02-24T07:33:51.047Z,27.36
2024-02-24T07:34:50.914Z,27.40
2024-02-24T07:35:50.944Z,27.34
2024-02-24T07:36:50.898Z,27.37
2024-02-24T07:37:50.896Z,27.40
2024-02-24T07:38:50.916Z,27.34
2024-02-24T07:39:50.888Z,27.36
2024-02-24T07:40:50.904Z,27.31
2024-02-24T07:41:51.000Z,27.34
2024-02-24T07:42:50.906Z,27.34
2024-02-24T07:43:50.897Z,27.31
2024-02-24T07:44:50.940Z,27.31
2024-02-24T07:45:50.950Z,27.31
2024-02-24T07:46:50.910Z,27.34
2024-02-24T07:47:51.134Z,27.39
2024-02-24T07:48:50.937Z,27.37
2024-02-24T07:49:50.924Z,27.32
2024-02-24T07:50:51.000Z,27.40
2024-02-24T07:51:50.911Z,27.40
2024-02-24T07:52:50.933Z,27.36
2024-02-24T07:53:50.963Z,27.44
2024-02-24T07:54:50.938Z,27.39
2024-02-24T07:55:50.919Z,27.28
2024-02-24T07:56:51.014Z,27.43
2024-02-24T07:57:50.928Z,27.32
2024-02-24T07:58:50.935Z,27.32
2024-02-24T07:59:50.928Z,27.39
2024-02-24T08:00:53.113Z,27.31
2024-02-24T08:01:50.971Z,27.32
2024-02-24T08:02:50.978Z,27.40
2024-02-24T08:03:51.026Z,27.44
2024-02-24T08:04:50.942Z,27.41
2024-02-24T08:05:51.034Z,27.39
2024-02-24T08:06:51.017Z,27.32
2024-02-24T08:07:50.932Z,27.29
2024-02-24T08:08:50.990Z,27.29
2024-02-24T08:09:50.936Z,27.31
2024-02-24T08:10:50.953Z,27.29
2024-02-24T08:11:50.988Z,27.37
2024-02-24T08:12:51.005Z,27.43
2024-02-24T08:13:50.945Z,27.28
2024-02-24T08:14:51.222Z,27.36
2024-02-24T08:15:50.964Z,27.34
2024-02-24T08:16:50.946Z,27.29
2024-02-24T08:17:51.065Z,27.39
2024-02-24T08:18:51.104Z,27.34
2024-02-24T08:19:50.965Z,27.34
2024-02-24T08:20:51.009Z,27.29
2024-02-24T08:21:50.968Z,27.29
2024-02-24T08:22:50.959Z,27.29
2024-02-24T08:23:51.078Z,27.29
2024-02-24T08:24:50.961Z,27.41
2024-02-24T08:25:50.975Z,27.32
2024-02-24T08:26:51.016Z,27.34
2024-02-24T08:27:50.975Z,27.29
2024-02-24T08:28:50.968Z,27.43
2024-02-24T08:29:51.069Z,27.31
2024-02-24T08:30:50.986Z,27.34
2024-02-24T08:31:50.999Z,27.34
2024-02-24T08:32:51.057Z,27.31
2024-02-24T08:33:51.110Z,27.34
2024-02-24T08:34:51.040Z,27.40
2024-02-24T08:35:51.026Z,27.40
2024-02-24T08:36:51.048Z,27.36
2024-02-24T08:37:51.004Z,27.32
2024-02-24T08:38:51.024Z,27.37
2024-02-24T08:39:50.997Z,27.41
2024-02-24T08:40:50.985Z,27.39
2024-02-24T08:41:51.050Z,27.37
2024-02-24T08:42:50.999Z,27.36
2024-02-24T08:43:51.004Z,27.31
2024-02-24T08:44:51.060Z,27.40
2024-02-24T08:45:51.017Z,27.34
2024-02-24T08:46:50.993Z,27.32
2024-02-24T08:47:51.085Z,27.34
2024-02-24T08:48:50.998Z,27.31
2024-02-24T08:49:51.202Z,27.36
2024-02-24T08:50:51.027Z,27.36
2024-02-24T08:51:51.016Z,27.39
2024-02-24T08:52:51.053Z,27.34
2024-02-24T08:53:51.091Z,27.32
2024-02-24T08:54:51.006Z,27.34
2024-02-24T08:55:51.022Z,27.36
2024-02-24T08:56:51.078Z,27.44
2024-02-24T08:57:51.019Z,27.49
2024-02-24T08:58:51.033Z,27.36
2024-02-24T08:59:51.055Z,27.40
2024-02-24T09:00:51.022Z,27.40
2024-02-24T09:01:51.024Z,27.28
2024-02-24T09:02:51.083Z,27.31
2024-02-24T09:03:51.072Z,27.31
2024-02-24T09:04:51.027Z,27.34
2024-02-24T09:05:51.136Z,27.47
2024-02-24T09:06:51.166Z,27.40
2024-02-24T09:07:51.098Z,27.43
2024-02-24T09:08:51.050Z,27.36
2024-02-24T09:09:51.040Z,27.49
2024-02-24T09:10:51.074Z,27.44
2024-02-24T09:11:51.438Z,27.36
2024-02-24T09:12:51.031Z,27.39
2024-02-24T09:13:51.053Z,27.44
2024-02-24T09:14:51.130Z,27.39
2024-02-24T09:15:51.057Z,27.34
2024-02-24T09:16:51.054Z,27.37
2024-02-24T09:17:51.131Z,27.39
2024-02-24T09:18:51.134Z,27.44
2024-02-24T09:19:51.118Z,27.36
2024-02-24T09:20:51.122Z,27.40
2024-02-24T09:21:51.129Z,27.34
2024-02-24T09:22:51.049Z,27.32
2024-02-24T09:23:51.177Z,27.36
2024-02-24T09:24:51.050Z,27.39
2024-02-24T09:25:51.074Z,27.34
2024-02-24T09:26:51.147Z,27.39
2024-02-24T09:27:51.073Z,27.36
2024-02-24T09:28:51.054Z,27.31
2024-02-24T09:29:51.097Z,27.29
2024-02-24T09:30:51.057Z,27.28
2024-02-24T09:31:51.080Z,27.36
2024-02-24T09:32:51.115Z,27.34
2024-02-24T09:33:51.207Z,27.43
2024-02-24T09:34:51.134Z,27.40
2024-02-24T09:35:51.123Z,27.43
2024-02-24T09:36:51.066Z,27.41
2024-02-24T09:37:51.114Z,27.31
2024-02-24T09:38:51.123Z,27.29
2024-02-24T09:39:51.086Z,27.32
2024-02-24T09:40:51.076Z,27.44
2024-02-24T09:41:51.155Z,27.32
2024-02-24T09:42:51.076Z,27.44
2024-02-24T09:43:51.089Z,27.31
2024-02-24T09:44:51.148Z,27.32
2024-02-24T09:45:51.091Z,27.43
2024-02-24T09:46:51.082Z,27.44
2024-02-24T09:47:51.178Z,27.41
2024-02-24T09:48:51.252Z,27.37
2024-02-24T09:49:51.102Z,27.40
2024-02-24T09:50:51.118Z,27.32
2024-02-24T09:51:51.107Z,27.37
2024-02-24T09:52:51.092Z,27.37
2024-02-24T09:53:51.211Z,27.27
2024-02-24T09:54:51.094Z,27.37
2024-02-24T09:55:51.142Z,27.43
2024-02-24T09:56:51.153Z,27.44
2024-02-24T09:57:51.108Z,27.43
2024-02-24T09:58:51.099Z,27.43
2024-02-24T09:59:51.175Z,27.40
2024-02-24T10:00:51.127Z,27.40
2024-02-24T10:01:51.116Z,27.43
2024-02-24T10:02:51.215Z,27.39
2024-02-24T10:03:51.146Z,27.43
2024-02-24T10:04:51.226Z,27.43
2024-02-24T10:05:51.351Z,27.40
2024-02-24T10:06:51.112Z,27.40
2024-02-24T10:07:51.125Z,27.41
2024-02-24T10:08:51.197Z,27.43
2024-02-24T10:09:51.160Z,27.44
2024-02-24T10:10:51.150Z,27.39
2024-02-24T10:11:51.146Z,27.40
2024-02-24T10:12:51.120Z,27.28
2024-02-24T10:13:51.133Z,27.37
2024-02-24T10:14:51.190Z,27.37
2024-02-24T10:15:51.135Z,27.49
2024-02-24T10:16:51.127Z,27.39
2024-02-24T10:17:51.219Z,27.36
2024-02-24T10:18:51.225Z,27.46
2024-02-24T10:19:51.195Z,27.46
2024-02-24T10:20:51.157Z,27.44
2024-02-24T10:21:51.147Z,27.32
2024-02-24T10:22:51.138Z,27.39
2024-02-24T10:23:51.251Z,27.49
2024-02-24T10:24:51.141Z,27.44
2024-02-24T10:25:51.194Z,27.43
2024-02-24T10:26:51.186Z,27.46
2024-02-24T10:27:51.167Z,27.40
2024-02-24T10:28:51.145Z,27.44
2024-02-24T10:29:51.193Z,27.40
2024-02-24T10:30:51.159Z,27.34
2024-02-24T10:31:51.161Z,27.39
2024-02-24T10:32:51.206Z,27.43
2024-02-24T10:33:51.273Z,27.49
2024-02-24T10:34:51.300Z,27.41
2024-02-24T10:35:52.486Z,27.41
2024-02-24T10:36:51.168Z,27.40
2024-02-24T10:38:04.095Z,27.37
2024-02-24T10:38:55.707Z,27.40
2024-02-24T10:39:51.173Z,27.32
2024-02-24T10:40:51.164Z,27.46
2024-02-24T10:41:51.205Z,27.49
2024-02-24T10:42:51.163Z,27.41
2024-02-24T10:43:52.501Z,27.41
2024-02-24T10:44:51.206Z,27.40
2024-02-24T10:45:51.183Z,27.49
2024-02-24T10:46:51.228Z,27.44
2024-02-24T10:47:52.560Z,27.44
2024-02-24T10:48:51.330Z,27.43
2024-02-24T10:49:51.254Z,27.43
2024-02-24T10:50:51.204Z,27.40
2024-02-24T10:51:51.418Z,27.36
2024-02-24T10:52:51.198Z,27.46
2024-02-24T10:53:51.213Z,27.43
2024-02-24T10:54:51.195Z,27.44
2024-02-24T10:55:51.201Z,27.37
2024-02-24T10:56:51.230Z,27.41
2024-02-24T10:57:51.958Z,27.40
2024-02-24T10:58:51.192Z,27.47
2024-02-24T10:59:51.251Z,27.46
2024-02-24T11:00:51.231Z,27.44
2024-02-24T11:01:51.222Z,27.54
2024-02-24T11:02:51.391Z,27.39
2024-02-24T11:03:51.277Z,27.37
2024-02-24T11:04:51.201Z,27.40
2024-02-24T11:05:51.348Z,27.40
2024-02-24T11:06:51.492Z,27.51
2024-02-24T11:07:51.260Z,27.44
2024-02-24T11:08:51.271Z,27.39
2024-02-24T11:09:51.221Z,27.47
2024-02-24T11:10:51.257Z,27.40
2024-02-24T11:11:51.466Z,27.47
2024-02-24T11:12:51.222Z,27.39
2024-02-24T11:14:00.341Z,27.40
2024-02-24T11:14:51.489Z,27.39
2024-02-24T11:15:51.226Z,27.40
2024-02-24T11:16:51.235Z,27.40
2024-02-24T11:17:51.270Z,27.50
2024-02-24T11:18:51.310Z,27.43
2024-02-24T11:19:51.280Z,27.40
2024-02-24T11:20:51.278Z,27.40
2024-02-24T11:21:51.236Z,27.43
2024-02-24T11:22:51.238Z,27.44
2024-02-24T11:23:51.380Z,27.36
2024-02-24T11:24:51.233Z,27.41
2024-02-24T11:25:51.240Z,27.32
2024-02-24T11:26:51.394Z,27.39
2024-02-24T11:27:51.247Z,27.41
2024-02-24T11:28:51.239Z,27.36
2024-02-24T11:29:51.319Z,27.43
2024-02-24T11:30:51.241Z,27.43
2024-02-24T11:31:51.260Z,27.43
2024-02-24T11:32:51.353Z,27.39
2024-02-24T11:33:51.383Z,27.39
2024-02-24T11:34:51.280Z,27.46
2024-02-24T11:35:51.364Z,27.47
2024-02-24T11:36:51.252Z,27.47
2024-02-24T11:37:51.264Z,27.39
2024-02-24T11:38:51.442Z,27.40
2024-02-24T11:39:51.269Z,27.40
2024-02-24T11:40:51.254Z,27.40
2024-02-24T11:41:51.349Z,27.41
2024-02-24T11:42:51.257Z,27.40
2024-02-24T11:43:51.296Z,27.50
2024-02-24T11:44:51.285Z,27.43
2024-02-24T11:45:51.294Z,27.46
2024-02-24T11:46:51.266Z,27.41
2024-02-24T11:47:51.405Z,27.40
2024-02-24T11:48:51.396Z,27.44
2024-02-24T11:49:51.335Z,27.50
2024-02-24T11:50:51.394Z,27.41
2024-02-24T11:51:51.285Z,27.44
2024-02-24T11:52:51.295Z,27.46
2024-02-24T11:53:51.346Z,27.41
2024-02-24T11:54:51.281Z,27.43
2024-02-24T11:55:51.292Z,27.34
2024-02-24T11:56:51.401Z,27.41
2024-02-24T11:57:51.291Z,27.50
2024-02-24T11:58:51.278Z,27.37
2024-02-24T11:59:51.308Z,27.41
2024-02-24T12:00:51.394Z,27.37
2024-02-24T12:01:51.318Z,27.49
2024-02-24T12:02:51.346Z,27.47
2024-02-24T12:03:51.361Z,27.40
2024-02-24T12:04:51.292Z,27.44
2024-02-24T12:05:51.370Z,27.39
2024-02-24T12:06:51.321Z,27.43
2024-02-24T12:07:51.308Z,27.49
2024-02-24T12:08:51.325Z,27.44
2024-02-24T12:09:52.794Z,27.46
2024-02-24T12:10:51.373Z,27.39
2024-02-24T12:11:51.369Z,27.37
2024-02-24T12:12:51.306Z,27.43
2024-02-24T12:13:51.313Z,27.46
2024-02-24T12:14:51.328Z,27.43
2024-02-24T12:15:51.317Z,27.49
2024-02-24T12:16:51.308Z,27.43
2024-02-24T12:17:51.486Z,27.40
2024-02-24T12:18:51.459Z,27.41
2024-02-24T12:19:51.334Z,27.41
2024-02-24T12:20:51.371Z,27.40
2024-02-24T12:21:51.338Z,27.50
2024-02-24T12:22:51.318Z,27.37
2024-02-24T12:23:51.400Z,27.44
2024-02-24T12:24:51.323Z,27.41
2024-02-24T12:25:51.335Z,27.41
2024-02-24T12:26:51.344Z,27.37
2024-02-24T12:27:51.344Z,27.43
2024-02-24T12:28:51.327Z,27.44
2024-02-24T12:29:51.398Z,27.44
2024-02-24T12:30:51.332Z,27.46
2024-02-24T12:31:51.331Z,27.47
2024-02-24T12:32:51.722Z,27.43
2024-02-24T12:33:51.525Z,27.43
2024-02-24T12:34:51.396Z,27.39
2024-02-24T12:35:51.365Z,27.43
2024-02-24T12:36:51.351Z,27.40
2024-02-24T12:37:51.340Z,27.39
2024-02-24T12:38:51.402Z,27.39
2024-02-24T12:39:51.351Z,27.40
2024-02-24T12:40:51.362Z,27.39
2024-02-24T12:41:51.386Z,27.39
2024-02-24T12:42:51.369Z,27.39
2024-02-24T12:43:51.367Z,27.36
2024-02-24T12:44:51.413Z,27.40
2024-02-24T12:45:51.357Z,27.37
2024-02-24T12:46:51.367Z,27.44
2024-02-24T12:47:51.430Z,27.43
2024-02-24T12:48:51.656Z,27.46
2024-02-24T12:49:51.410Z,27.44
2024-02-24T12:50:51.484Z,27.40
2024-02-24T12:51:51.366Z,27.41
2024-02-24T12:52:51.375Z,27.40